sensor_id;sensor_type;location;lat;lon;timestamp;temperature;humidity
70534;SHT31;58088;51.186;17.130;2023-11-19T00:00:10;5.07;75.58
70534;SHT31;58088;51.186;17.130;2023-11-19T00:02:40;5.05;75.60
70534;SHT31;58088;51.186;17.130;2023-11-19T00:05:07;5.07;75.60
70534;SHT31;58088;51.186;17.130;2023-11-19T00:07:37;5.06;75.60
70534;SHT31;58088;51.186;17.130;2023-11-19T00:10:10;5.04;75.60
70534;SHT31;58088;51.186;17.130;2023-11-19T00:12:42;5.02;75.65
70534;SHT31;58088;51.186;17.130;2023-11-19T00:15:11;5.01;75.81
70534;SHT31;58088;51.186;17.130;2023-11-19T00:17:39;4.98;75.88
70534;SHT31;58088;51.186;17.130;2023-11-19T00:20:13;4.96;75.92
70534;SHT31;58088;51.186;17.130;2023-11-19T00:22:41;4.96;75.99
70534;SHT31;58088;51.186;17.130;2023-11-19T00:25:09;4.93;76.01
70534;SHT31;58088;51.186;17.130;2023-11-19T00:27:36;4.92;76.08
70534;SHT31;58088;51.186;17.130;2023-11-19T00:30:05;4.92;75.98
70534;SHT31;58088;51.186;17.130;2023-11-19T00:32:33;4.86;76.13
70534;SHT31;58088;51.186;17.130;2023-11-19T00:35:00;4.85;76.20
70534;SHT31;58088;51.186;17.130;2023-11-19T00:37:26;4.83;76.21
70534;SHT31;58088;51.186;17.130;2023-11-19T00:39:52;4.82;76.19
70534;SHT31;58088;51.186;17.130;2023-11-19T00:42:19;4.78;76.16
70534;SHT31;58088;51.186;17.130;2023-11-19T00:44:46;4.74;76.19
70534;SHT31;58088;51.186;17.130;2023-11-19T00:47:12;4.69;76.28
70534;SHT31;58088;51.186;17.130;2023-11-19T00:49:38;4.64;76.26
70534;SHT31;58088;51.186;17.130;2023-11-19T00:52:04;4.58;76.28
70534;SHT31;58088;51.186;17.130;2023-11-19T00:54:32;4.55;76.33
70534;SHT31;58088;51.186;17.130;2023-11-19T00:56:58;4.53;76.31
70534;SHT31;58088;51.186;17.130;2023-11-19T00:59:24;4.51;76.31
70534;SHT31;58088;51.186;17.130;2023-11-19T01:01:50;4.48;76.30
70534;SHT31;58088;51.186;17.130;2023-11-19T01:04:16;4.48;76.30
70534;SHT31;58088;51.186;17.130;2023-11-19T01:06:43;4.46;76.24
70534;SHT31;58088;51.186;17.130;2023-11-19T01:09:09;4.42;76.21
70534;SHT31;58088;51.186;17.130;2023-11-19T01:11:36;4.38;76.17
70534;SHT31;58088;51.186;17.130;2023-11-19T01:14:02;4.33;76.20
70534;SHT31;58088;51.186;17.130;2023-11-19T01:16:28;4.30;76.18
70534;SHT31;58088;51.186;17.130;2023-11-19T01:18:55;4.26;76.21
70534;SHT31;58088;51.186;17.130;2023-11-19T01:21:22;4.24;76.28
70534;SHT31;58088;51.186;17.130;2023-11-19T01:23:48;4.22;76.20
70534;SHT31;58088;51.186;17.130;2023-11-19T01:26:15;4.18;76.19
70534;SHT31;58088;51.186;17.130;2023-11-19T01:28:42;4.13;76.24
70534;SHT31;58088;51.186;17.130;2023-11-19T01:31:16;4.11;76.23
70534;SHT31;58088;51.186;17.130;2023-11-19T01:33:42;4.07;76.20
70534;SHT31;58088;51.186;17.130;2023-11-19T01:36:08;4.00;76.28
70534;SHT31;58088;51.186;17.130;2023-11-19T01:38:38;3.95;76.38
70534;SHT31;58088;51.186;17.130;2023-11-19T01:41:05;3.94;76.41
70534;SHT31;58088;51.186;17.130;2023-11-19T01:46:08;3.88;76.49
70534;SHT31;58088;51.186;17.130;2023-11-19T01:48:42;3.88;76.49
70534;SHT31;58088;51.186;17.130;2023-11-19T01:51:12;3.87;76.53
70534;SHT31;58088;51.186;17.130;2023-11-19T01:53:44;3.86;76.55
70534;SHT31;58088;51.186;17.130;2023-11-19T01:56:12;3.84;76.57
70534;SHT31;58088;51.186;17.130;2023-11-19T01:58:42;3.84;76.61
70534;SHT31;58088;51.186;17.130;2023-11-19T02:01:13;3.85;76.60
70534;SHT31;58088;51.186;17.130;2023-11-19T02:03:41;3.86;76.60
70534;SHT31;58088;51.186;17.130;2023-11-19T02:06:09;3.86;76.60
70534;SHT31;58088;51.186;17.130;2023-11-19T02:08:36;3.84;76.66
70534;SHT31;58088;51.186;17.130;2023-11-19T02:11:04;3.82;76.70
70534;SHT31;58088;51.186;17.130;2023-11-19T02:13:32;3.83;76.70
70534;SHT31;58088;51.186;17.130;2023-11-19T02:15:59;3.84;76.64
70534;SHT31;58088;51.186;17.130;2023-11-19T02:18:26;3.85;76.61
70534;SHT31;58088;51.186;17.130;2023-11-19T02:20:54;3.83;76.54
70534;SHT31;58088;51.186;17.130;2023-11-19T02:23:22;3.82;76.57
70534;SHT31;58088;51.186;17.130;2023-11-19T02:26:13;3.82;76.61
70534;SHT31;58088;51.186;17.130;2023-11-19T02:29:05;3.82;76.60
70534;SHT31;58088;51.186;17.130;2023-11-19T02:31:32;3.83;76.67
70534;SHT31;58088;51.186;17.130;2023-11-19T02:33:59;3.84;76.63
70534;SHT31;58088;51.186;17.130;2023-11-19T02:36:26;3.83;76.69
70534;SHT31;58088;51.186;17.130;2023-11-19T02:38:52;3.80;76.63
70534;SHT31;58088;51.186;17.130;2023-11-19T02:41:18;3.79;76.69
70534;SHT31;58088;51.186;17.130;2023-11-19T02:43:44;3.78;76.71
70534;SHT31;58088;51.186;17.130;2023-11-19T02:46:10;3.77;76.73
70534;SHT31;58088;51.186;17.130;2023-11-19T02:48:36;3.77;76.69
70534;SHT31;58088;51.186;17.130;2023-11-19T02:51:03;3.77;76.61
70534;SHT31;58088;51.186;17.130;2023-11-19T02:53:34;3.78;76.67
70534;SHT31;58088;51.186;17.130;2023-11-19T02:56:03;3.79;76.73
70534;SHT31;58088;51.186;17.130;2023-11-19T02:58:50;3.81;76.75
70534;SHT31;58088;51.186;17.130;2023-11-19T03:04:47;3.80;76.74
70534;SHT31;58088;51.186;17.130;2023-11-19T03:07:13;3.82;76.71
70534;SHT31;58088;51.186;17.130;2023-11-19T03:09:39;3.80;76.72
70534;SHT31;58088;51.186;17.130;2023-11-19T03:12:06;3.78;76.66
70534;SHT31;58088;51.186;17.130;2023-11-19T03:14:35;3.78;76.65
70534;SHT31;58088;51.186;17.130;2023-11-19T03:17:01;3.78;76.69
70534;SHT31;58088;51.186;17.130;2023-11-19T03:19:29;3.78;76.60
70534;SHT31;58088;51.186;17.130;2023-11-19T03:21:55;3.80;76.62
70534;SHT31;58088;51.186;17.130;2023-11-19T03:24:21;3.79;76.59
70534;SHT31;58088;51.186;17.130;2023-11-19T03:26:48;3.80;76.52
70534;SHT31;58088;51.186;17.130;2023-11-19T03:29:17;3.78;76.48
70534;SHT31;58088;51.186;17.130;2023-11-19T03:31:43;3.75;76.48
70534;SHT31;58088;51.186;17.130;2023-11-19T03:34:13;3.74;76.50
70534;SHT31;58088;51.186;17.130;2023-11-19T03:36:39;3.72;76.50
70534;SHT31;58088;51.186;17.130;2023-11-19T03:39:05;3.74;76.51
70534;SHT31;58088;51.186;17.130;2023-11-19T03:41:31;3.75;76.50
70534;SHT31;58088;51.186;17.130;2023-11-19T03:43:57;3.74;76.41
70534;SHT31;58088;51.186;17.130;2023-11-19T03:46:23;3.76;76.40
70534;SHT31;58088;51.186;17.130;2023-11-19T03:48:49;3.77;76.40
70534;SHT31;58088;51.186;17.130;2023-11-19T03:51:16;3.75;76.31
70534;SHT31;58088;51.186;17.130;2023-11-19T03:53:43;3.75;76.40
70534;SHT31;58088;51.186;17.130;2023-11-19T03:56:11;3.77;76.31
70534;SHT31;58088;51.186;17.130;2023-11-19T03:58:38;3.74;76.26
70534;SHT31;58088;51.186;17.130;2023-11-19T04:01:05;3.73;76.28
70534;SHT31;58088;51.186;17.130;2023-11-19T04:03:36;3.74;76.29
70534;SHT31;58088;51.186;17.130;2023-11-19T04:06:03;3.73;76.21
70534;SHT31;58088;51.186;17.130;2023-11-19T04:08:30;3.73;76.20
70534;SHT31;58088;51.186;17.130;2023-11-19T04:10:56;3.70;76.20
70534;SHT31;58088;51.186;17.130;2023-11-19T04:13:22;3.69;76.20
70534;SHT31;58088;51.186;17.130;2023-11-19T04:15:50;3.69;76.19
70534;SHT31;58088;51.186;17.130;2023-11-19T04:18:16;3.71;76.15
70534;SHT31;58088;51.186;17.130;2023-11-19T04:20:42;3.73;76.11
70534;SHT31;58088;51.186;17.130;2023-11-19T04:23:09;3.73;76.07
70534;SHT31;58088;51.186;17.130;2023-11-19T04:25:35;3.73;76.06
70534;SHT31;58088;51.186;17.130;2023-11-19T04:28:01;3.71;75.99
70534;SHT31;58088;51.186;17.130;2023-11-19T04:30:28;3.69;76.00
70534;SHT31;58088;51.186;17.130;2023-11-19T04:32:54;3.70;76.02
70534;SHT31;58088;51.186;17.130;2023-11-19T04:35:20;3.68;76.02
70534;SHT31;58088;51.186;17.130;2023-11-19T04:37:47;3.68;76.01
70534;SHT31;58088;51.186;17.130;2023-11-19T04:40:13;3.67;76.03
70534;SHT31;58088;51.186;17.130;2023-11-19T04:42:39;3.67;76.07
70534;SHT31;58088;51.186;17.130;2023-11-19T04:45:06;3.67;76.06
70534;SHT31;58088;51.186;17.130;2023-11-19T04:47:33;3.69;76.07
70534;SHT31;58088;51.186;17.130;2023-11-19T04:50:00;3.71;76.09
70534;SHT31;58088;51.186;17.130;2023-11-19T04:52:26;3.72;76.10
70534;SHT31;58088;51.186;17.130;2023-11-19T04:54:52;3.75;76.10
70534;SHT31;58088;51.186;17.130;2023-11-19T04:57:18;3.78;76.06
70534;SHT31;58088;51.186;17.130;2023-11-19T04:59:44;3.79;76.01
70534;SHT31;58088;51.186;17.130;2023-11-19T05:02:11;3.78;76.00
70534;SHT31;58088;51.186;17.130;2023-11-19T05:04:37;3.80;75.99
70534;SHT31;58088;51.186;17.130;2023-11-19T05:07:05;3.80;76.00
70534;SHT31;58088;51.186;17.130;2023-11-19T05:09:33;3.83;75.97
70534;SHT31;58088;51.186;17.130;2023-11-19T05:11:59;3.82;75.93
70534;SHT31;58088;51.186;17.130;2023-11-19T05:14:25;3.83;75.96
70534;SHT31;58088;51.186;17.130;2023-11-19T05:16:51;3.82;75.91
70534;SHT31;58088;51.186;17.130;2023-11-19T05:19:17;3.83;75.99
70534;SHT31;58088;51.186;17.130;2023-11-19T05:21:44;3.84;76.00
70534;SHT31;58088;51.186;17.130;2023-11-19T05:24:10;3.84;75.96
70534;SHT31;58088;51.186;17.130;2023-11-19T05:26:39;3.84;75.97
70534;SHT31;58088;51.186;17.130;2023-11-19T05:29:06;3.85;75.99
70534;SHT31;58088;51.186;17.130;2023-11-19T05:31:32;3.86;76.00
70534;SHT31;58088;51.186;17.130;2023-11-19T05:33:59;3.88;75.97
70534;SHT31;58088;51.186;17.130;2023-11-19T05:36:25;3.90;75.96
70534;SHT31;58088;51.186;17.130;2023-11-19T05:38:51;3.90;75.90
70534;SHT31;58088;51.186;17.130;2023-11-19T05:41:17;3.90;75.91
70534;SHT31;58088;51.186;17.130;2023-11-19T05:43:43;3.93;75.93
70534;SHT31;58088;51.186;17.130;2023-11-19T05:46:09;3.94;75.90
70534;SHT31;58088;51.186;17.130;2023-11-19T05:48:35;3.94;75.83
70534;SHT31;58088;51.186;17.130;2023-11-19T05:51:01;3.95;75.81
70534;SHT31;58088;51.186;17.130;2023-11-19T05:53:28;3.96;75.90
70534;SHT31;58088;51.186;17.130;2023-11-19T05:55:54;3.97;75.85
70534;SHT31;58088;51.186;17.130;2023-11-19T05:58:25;3.99;75.88
70534;SHT31;58088;51.186;17.130;2023-11-19T06:00:57;4.01;75.85
70534;SHT31;58088;51.186;17.130;2023-11-19T06:03:26;4.04;75.86
70534;SHT31;58088;51.186;17.130;2023-11-19T06:05:52;4.06;75.80
70534;SHT31;58088;51.186;17.130;2023-11-19T06:08:20;4.06;75.82
70534;SHT31;58088;51.186;17.130;2023-11-19T06:10:46;4.07;75.88
70534;SHT31;58088;51.186;17.130;2023-11-19T06:13:13;4.08;75.80
70534;SHT31;58088;51.186;17.130;2023-11-19T06:15:43;4.09;75.85
70534;SHT31;58088;51.186;17.130;2023-11-19T06:18:10;4.10;75.90
70534;SHT31;58088;51.186;17.130;2023-11-19T06:20:40;4.13;75.86
70534;SHT31;58088;51.186;17.130;2023-11-19T06:23:06;4.16;75.82
70534;SHT31;58088;51.186;17.130;2023-11-19T06:25:33;4.16;75.81
70534;SHT31;58088;51.186;17.130;2023-11-19T06:28:01;4.18;75.80
70534;SHT31;58088;51.186;17.130;2023-11-19T06:30:27;4.20;75.89
70534;SHT31;58088;51.186;17.130;2023-11-19T06:32:55;4.22;75.88
70534;SHT31;58088;51.186;17.130;2023-11-19T06:35:22;4.24;75.89
70534;SHT31;58088;51.186;17.130;2023-11-19T06:37:48;4.26;75.81
70534;SHT31;58088;51.186;17.130;2023-11-19T06:40:14;4.24;75.79
70534;SHT31;58088;51.186;17.130;2023-11-19T06:42:41;4.24;75.89
70534;SHT31;58088;51.186;17.130;2023-11-19T06:45:07;4.25;75.88
70534;SHT31;58088;51.186;17.130;2023-11-19T06:47:35;4.27;75.87
70534;SHT31;58088;51.186;17.130;2023-11-19T06:50:01;4.28;75.81
70534;SHT31;58088;51.186;17.130;2023-11-19T06:52:31;4.30;75.90
70534;SHT31;58088;51.186;17.130;2023-11-19T06:54:57;4.33;75.89
70534;SHT31;58088;51.186;17.130;2023-11-19T06:57:23;4.34;75.79
70534;SHT31;58088;51.186;17.130;2023-11-19T06:59:49;4.34;75.79
70534;SHT31;58088;51.186;17.130;2023-11-19T07:02:15;4.37;75.75
70534;SHT31;58088;51.186;17.130;2023-11-19T07:04:41;4.39;75.70
70534;SHT31;58088;51.186;17.130;2023-11-19T07:07:08;4.41;75.76
70534;SHT31;58088;51.186;17.130;2023-11-19T07:09:35;4.47;75.71
70534;SHT31;58088;51.186;17.130;2023-11-19T07:12:01;4.48;75.69
70534;SHT31;58088;51.186;17.130;2023-11-19T07:14:30;4.52;75.63
70534;SHT31;58088;51.186;17.130;2023-11-19T07:16:56;4.56;75.58
70534;SHT31;58088;51.186;17.130;2023-11-19T07:19:23;4.60;75.49
70534;SHT31;58088;51.186;17.130;2023-11-19T07:21:49;4.61;75.37
70534;SHT31;58088;51.186;17.130;2023-11-19T07:24:15;4.62;75.40
70534;SHT31;58088;51.186;17.130;2023-11-19T07:26:45;4.64;75.37
70534;SHT31;58088;51.186;17.130;2023-11-19T07:29:13;4.66;75.30
70534;SHT31;58088;51.186;17.130;2023-11-19T07:31:42;4.68;75.30
70534;SHT31;58088;51.186;17.130;2023-11-19T07:34:10;4.67;75.27
70534;SHT31;58088;51.186;17.130;2023-11-19T07:36:37;4.72;75.27
70534;SHT31;58088;51.186;17.130;2023-11-19T07:39:04;4.72;75.20
70534;SHT31;58088;51.186;17.130;2023-11-19T07:41:31;4.74;75.17
70534;SHT31;58088;51.186;17.130;2023-11-19T07:43:57;4.78;75.15
70534;SHT31;58088;51.186;17.130;2023-11-19T07:46:23;4.83;75.12
70534;SHT31;58088;51.186;17.130;2023-11-19T07:48:51;4.88;75.03
70534;SHT31;58088;51.186;17.130;2023-11-19T07:51:18;4.92;75.01
70534;SHT31;58088;51.186;17.130;2023-11-19T07:53:48;4.96;74.98
70534;SHT31;58088;51.186;17.130;2023-11-19T07:56:15;5.00;74.86
70534;SHT31;58088;51.186;17.130;2023-11-19T07:58:41;5.02;74.81
70534;SHT31;58088;51.186;17.130;2023-11-19T08:01:07;5.03;74.79
70534;SHT31;58088;51.186;17.130;2023-11-19T08:03:34;5.07;74.77
70534;SHT31;58088;51.186;17.130;2023-11-19T08:06:01;5.12;74.76
70534;SHT31;58088;51.186;17.130;2023-11-19T08:08:28;5.13;74.77
70534;SHT31;58088;51.186;17.130;2023-11-19T08:10:56;5.13;74.76
70534;SHT31;58088;51.186;17.130;2023-11-19T08:13:25;5.13;74.83
70534;SHT31;58088;51.186;17.130;2023-11-19T08:15:52;5.16;74.84
70534;SHT31;58088;51.186;17.130;2023-11-19T08:18:19;5.13;74.78
70534;SHT31;58088;51.186;17.130;2023-11-19T08:20:46;5.13;74.80
70534;SHT31;58088;51.186;17.130;2023-11-19T08:23:18;5.06;74.88
70534;SHT31;58088;51.186;17.130;2023-11-19T08:25:45;5.05;74.95
70534;SHT31;58088;51.186;17.130;2023-11-19T08:28:11;5.06;75.00
70534;SHT31;58088;51.186;17.130;2023-11-19T08:30:38;5.07;75.12
70534;SHT31;58088;51.186;17.130;2023-11-19T08:33:04;5.10;75.20
70534;SHT31;58088;51.186;17.130;2023-11-19T08:35:31;5.07;75.14
70534;SHT31;58088;51.186;17.130;2023-11-19T08:37:58;5.07;75.24
70534;SHT31;58088;51.186;17.130;2023-11-19T08:40:24;5.06;75.28
70534;SHT31;58088;51.186;17.130;2023-11-19T08:42:55;5.03;75.28
70534;SHT31;58088;51.186;17.130;2023-11-19T08:45:22;5.00;75.31
70534;SHT31;58088;51.186;17.130;2023-11-19T08:47:48;4.96;75.27
70534;SHT31;58088;51.186;17.130;2023-11-19T08:50:16;4.95;75.40
70534;SHT31;58088;51.186;17.130;2023-11-19T08:52:56;4.93;75.40
70534;SHT31;58088;51.186;17.130;2023-11-19T08:55:34;4.90;75.49
70534;SHT31;58088;51.186;17.130;2023-11-19T08:58:01;4.85;75.49
70534;SHT31;58088;51.186;17.130;2023-11-19T09:00:37;4.77;75.53
70534;SHT31;58088;51.186;17.130;2023-11-19T09:03:03;4.73;75.60
70534;SHT31;58088;51.186;17.130;2023-11-19T09:05:29;4.68;75.76
70534;SHT31;58088;51.186;17.130;2023-11-19T09:07:55;4.65;75.81
70534;SHT31;58088;51.186;17.130;2023-11-19T09:10:21;4.66;75.90
70534;SHT31;58088;51.186;17.130;2023-11-19T09:12:47;4.65;75.95
70534;SHT31;58088;51.186;17.130;2023-11-19T09:15:13;4.65;76.02
70534;SHT31;58088;51.186;17.130;2023-11-19T09:17:40;4.64;76.06
70534;SHT31;58088;51.186;17.130;2023-11-19T09:20:06;4.60;76.10
70534;SHT31;58088;51.186;17.130;2023-11-19T09:22:33;4.62;76.25
70534;SHT31;58088;51.186;17.130;2023-11-19T09:24:59;4.66;76.37
70534;SHT31;58088;51.186;17.130;2023-11-19T09:27:25;4.71;76.37
70534;SHT31;58088;51.186;17.130;2023-11-19T09:29:52;4.73;76.43
70534;SHT31;58088;51.186;17.130;2023-11-19T09:32:23;4.75;76.45
70534;SHT31;58088;51.186;17.130;2023-11-19T09:34:49;4.75;76.32
70534;SHT31;58088;51.186;17.130;2023-11-19T09:37:15;4.75;76.50
70534;SHT31;58088;51.186;17.130;2023-11-19T09:39:42;4.78;76.58
70534;SHT31;58088;51.186;17.130;2023-11-19T09:42:11;4.83;76.68
70534;SHT31;58088;51.186;17.130;2023-11-19T09:44:38;4.88;76.72
70534;SHT31;58088;51.186;17.130;2023-11-19T09:47:06;4.89;76.68
70534;SHT31;58088;51.186;17.130;2023-11-19T09:49:33;4.95;76.77
70534;SHT31;58088;51.186;17.130;2023-11-19T09:52:02;4.99;76.78
70534;SHT31;58088;51.186;17.130;2023-11-19T09:54:28;5.03;76.86
70534;SHT31;58088;51.186;17.130;2023-11-19T09:56:55;5.03;76.73
70534;SHT31;58088;51.186;17.130;2023-11-19T09:59:28;5.03;76.87
70534;SHT31;58088;51.186;17.130;2023-11-19T10:01:56;5.04;76.96
70534;SHT31;58088;51.186;17.130;2023-11-19T10:04:23;5.07;77.00
70534;SHT31;58088;51.186;17.130;2023-11-19T10:06:51;5.10;77.12
70534;SHT31;58088;51.186;17.130;2023-11-19T10:09:17;5.11;77.10
70534;SHT31;58088;51.186;17.130;2023-11-19T10:11:44;5.14;77.19
70534;SHT31;58088;51.186;17.130;2023-11-19T10:14:10;5.18;77.16
70534;SHT31;58088;51.186;17.130;2023-11-19T10:16:37;5.21;77.17
70534;SHT31;58088;51.186;17.130;2023-11-19T10:19:04;5.24;77.27
70534;SHT31;58088;51.186;17.130;2023-11-19T10:21:32;5.29;77.31
70534;SHT31;58088;51.186;17.130;2023-11-19T10:23:59;5.34;77.38
70534;SHT31;58088;51.186;17.130;2023-11-19T10:26:26;5.38;77.31
70534;SHT31;58088;51.186;17.130;2023-11-19T10:28:53;5.45;77.44
70534;SHT31;58088;51.186;17.130;2023-11-19T10:31:21;5.51;77.44
70534;SHT31;58088;51.186;17.130;2023-11-19T10:33:51;5.57;77.44
70534;SHT31;58088;51.186;17.130;2023-11-19T10:36:18;5.64;77.64
70534;SHT31;58088;51.186;17.130;2023-11-19T10:38:52;5.73;77.68
70534;SHT31;58088;51.186;17.130;2023-11-19T10:41:26;5.82;77.68
70534;SHT31;58088;51.186;17.130;2023-11-19T10:43:57;5.91;77.72
70534;SHT31;58088;51.186;17.130;2023-11-19T10:46:37;5.97;77.72
70534;SHT31;58088;51.186;17.130;2023-11-19T10:49:08;6.02;77.66
70534;SHT31;58088;51.186;17.130;2023-11-19T10:51:34;6.07;77.64
70534;SHT31;58088;51.186;17.130;2023-11-19T10:54:02;6.10;77.60
70534;SHT31;58088;51.186;17.130;2023-11-19T10:56:33;6.12;77.60
70534;SHT31;58088;51.186;17.130;2023-11-19T10:59:00;6.18;77.64
70534;SHT31;58088;51.186;17.130;2023-11-19T11:01:32;6.21;77.66
70534;SHT31;58088;51.186;17.130;2023-11-19T11:04:15;6.25;77.65
70534;SHT31;58088;51.186;17.130;2023-11-19T11:06:51;6.36;77.64
70534;SHT31;58088;51.186;17.130;2023-11-19T11:09:26;6.38;77.59
70534;SHT31;58088;51.186;17.130;2023-11-19T11:11:53;6.41;77.66
70534;SHT31;58088;51.186;17.130;2023-11-19T11:14:22;6.44;77.69
70534;SHT31;58088;51.186;17.130;2023-11-19T11:16:52;6.46;77.61
70534;SHT31;58088;51.186;17.130;2023-11-19T11:19:19;6.49;77.61
70534;SHT31;58088;51.186;17.130;2023-11-19T11:21:47;6.52;77.67
70534;SHT31;58088;51.186;17.130;2023-11-19T11:24:32;6.58;77.68
70534;SHT31;58088;51.186;17.130;2023-11-19T11:33:25;6.62;77.79
70534;SHT31;58088;51.186;17.130;2023-11-19T11:36:10;6.69;77.78
70534;SHT31;58088;51.186;17.130;2023-11-19T11:38:49;6.71;77.68
70534;SHT31;58088;51.186;17.130;2023-11-19T11:43:48;6.68;77.71
70534;SHT31;58088;51.186;17.130;2023-11-19T11:49:01;6.68;77.71
70534;SHT31;58088;51.186;17.130;2023-11-19T11:59:48;6.70;77.94
70534;SHT31;58088;51.186;17.130;2023-11-19T12:02:16;6.70;77.99
70534;SHT31;58088;51.186;17.130;2023-11-19T12:04:49;6.69;78.08
70534;SHT31;58088;51.186;17.130;2023-11-19T12:07:22;6.72;78.20
70534;SHT31;58088;51.186;17.130;2023-11-19T12:09:52;6.77;78.25
70534;SHT31;58088;51.186;17.130;2023-11-19T12:12:33;6.80;78.20
70534;SHT31;58088;51.186;17.130;2023-11-19T12:15:02;6.82;78.27
70534;SHT31;58088;51.186;17.130;2023-11-19T12:17:46;6.87;78.34
70534;SHT31;58088;51.186;17.130;2023-11-19T12:20:15;6.90;78.44
70534;SHT31;58088;51.186;17.130;2023-11-19T12:22:47;6.96;78.50
70534;SHT31;58088;51.186;17.130;2023-11-19T12:25:15;7.02;78.50
70534;SHT31;58088;51.186;17.130;2023-11-19T12:27:44;7.07;78.50
70534;SHT31;58088;51.186;17.130;2023-11-19T12:30:21;7.11;78.52
70534;SHT31;58088;51.186;17.130;2023-11-19T12:32:53;7.17;78.50
70534;SHT31;58088;51.186;17.130;2023-11-19T12:35:20;7.24;78.51
70534;SHT31;58088;51.186;17.130;2023-11-19T12:37:50;7.25;78.41
70534;SHT31;58088;51.186;17.130;2023-11-19T12:40:21;7.29;78.47
70534;SHT31;58088;51.186;17.130;2023-11-19T12:42:50;7.37;78.50
70534;SHT31;58088;51.186;17.130;2023-11-19T12:45:19;7.44;78.49
70534;SHT31;58088;51.186;17.130;2023-11-19T12:47:52;7.49;78.44
70534;SHT31;58088;51.186;17.130;2023-11-19T12:50:51;7.53;78.38
70534;SHT31;58088;51.186;17.130;2023-11-19T12:53:19;7.57;78.35
70534;SHT31;58088;51.186;17.130;2023-11-19T12:55:46;7.64;78.35
70534;SHT31;58088;51.186;17.130;2023-11-19T13:01:05;7.78;78.14
70534;SHT31;58088;51.186;17.130;2023-11-19T13:03:33;7.77;77.99
70534;SHT31;58088;51.186;17.130;2023-11-19T13:06:10;7.77;77.94
70534;SHT31;58088;51.186;17.130;2023-11-19T13:08:48;7.80;78.02
70534;SHT31;58088;51.186;17.130;2023-11-19T13:11:30;7.85;78.05
70534;SHT31;58088;51.186;17.130;2023-11-19T13:14:05;7.92;78.11
70534;SHT31;58088;51.186;17.130;2023-11-19T13:16:35;7.99;78.10
70534;SHT31;58088;51.186;17.130;2023-11-19T13:19:04;8.04;78.05
70534;SHT31;58088;51.186;17.130;2023-11-19T13:21:31;8.10;78.01
70534;SHT31;58088;51.186;17.130;2023-11-19T13:23:58;8.15;77.94
70534;SHT31;58088;51.186;17.130;2023-11-19T13:26:24;8.17;77.89
70534;SHT31;58088;51.186;17.130;2023-11-19T13:28:50;8.21;77.87
70534;SHT31;58088;51.186;17.130;2023-11-19T13:31:17;8.24;77.81
70534;SHT31;58088;51.186;17.130;2023-11-19T13:33:43;8.28;77.75
70534;SHT31;58088;51.186;17.130;2023-11-19T13:36:09;8.30;77.67
70534;SHT31;58088;51.186;17.130;2023-11-19T13:38:35;8.31;77.69
70534;SHT31;58088;51.186;17.130;2023-11-19T13:41:02;8.34;77.71
70534;SHT31;58088;51.186;17.130;2023-11-19T13:43:35;8.36;77.70
70534;SHT31;58088;51.186;17.130;2023-11-19T13:46:01;8.38;77.70
70534;SHT31;58088;51.186;17.130;2023-11-19T13:48:27;8.43;77.76
70534;SHT31;58088;51.186;17.130;2023-11-19T13:50:57;8.47;77.70
70534;SHT31;58088;51.186;17.130;2023-11-19T13:53:24;8.48;77.70
70534;SHT31;58088;51.186;17.130;2023-11-19T13:55:50;8.50;77.70
70534;SHT31;58088;51.186;17.130;2023-11-19T13:58:16;8.52;77.64
70534;SHT31;58088;51.186;17.130;2023-11-19T14:00:42;8.55;77.60
70534;SHT31;58088;51.186;17.130;2023-11-19T14:03:09;8.58;77.60
70534;SHT31;58088;51.186;17.130;2023-11-19T14:05:38;8.62;77.60
70534;SHT31;58088;51.186;17.130;2023-11-19T14:08:07;8.67;77.60
70534;SHT31;58088;51.186;17.130;2023-11-19T14:10:39;8.73;77.55
70534;SHT31;58088;51.186;17.130;2023-11-19T14:13:06;8.74;77.53
70534;SHT31;58088;51.186;17.130;2023-11-19T14:15:33;8.76;77.57
70534;SHT31;58088;51.186;17.130;2023-11-19T14:18:00;8.79;77.60
70534;SHT31;58088;51.186;17.130;2023-11-19T14:20:27;8.80;77.67
70534;SHT31;58088;51.186;17.130;2023-11-19T14:22:53;8.85;77.59
70534;SHT31;58088;51.186;17.130;2023-11-19T14:25:21;8.89;77.56
70534;SHT31;58088;51.186;17.130;2023-11-19T14:27:49;8.91;77.59
70534;SHT31;58088;51.186;17.130;2023-11-19T14:30:15;8.93;77.60
70534;SHT31;58088;51.186;17.130;2023-11-19T14:32:41;8.96;77.67
70534;SHT31;58088;51.186;17.130;2023-11-19T14:35:12;8.99;77.60
70534;SHT31;58088;51.186;17.130;2023-11-19T14:37:38;9.01;77.60
70534;SHT31;58088;51.186;17.130;2023-11-19T14:40:05;9.04;77.58
70534;SHT31;58088;51.186;17.130;2023-11-19T14:42:34;9.06;77.48
70534;SHT31;58088;51.186;17.130;2023-11-19T14:45:00;9.07;77.33
70534;SHT31;58088;51.186;17.130;2023-11-19T14:47:26;9.04;77.26
70534;SHT31;58088;51.186;17.130;2023-11-19T14:49:52;9.06;77.20
70534;SHT31;58088;51.186;17.130;2023-11-19T14:52:19;9.07;77.10
70534;SHT31;58088;51.186;17.130;2023-11-19T14:54:45;9.08;77.06
70534;SHT31;58088;51.186;17.130;2023-11-19T14:57:11;9.07;77.02
70534;SHT31;58088;51.186;17.130;2023-11-19T14:59:38;9.07;77.00
70534;SHT31;58088;51.186;17.130;2023-11-19T15:02:05;9.09;77.00
70534;SHT31;58088;51.186;17.130;2023-11-19T15:04:32;9.10;76.93
70534;SHT31;58088;51.186;17.130;2023-11-19T15:06:58;9.11;76.90
70534;SHT31;58088;51.186;17.130;2023-11-19T15:09:25;9.11;76.92
70534;SHT31;58088;51.186;17.130;2023-11-19T15:11:54;9.11;76.90
70534;SHT31;58088;51.186;17.130;2023-11-19T15:14:23;9.09;76.90
70534;SHT31;58088;51.186;17.130;2023-11-19T15:16:49;9.07;76.93
70534;SHT31;58088;51.186;17.130;2023-11-19T15:19:18;9.08;76.93
70534;SHT31;58088;51.186;17.130;2023-11-19T15:21:45;9.10;76.94
70534;SHT31;58088;51.186;17.130;2023-11-19T15:24:12;9.11;76.90
70534;SHT31;58088;51.186;17.130;2023-11-19T15:26:38;9.11;76.84
70534;SHT31;58088;51.186;17.130;2023-11-19T15:29:04;9.08;76.79
70534;SHT31;58088;51.186;17.130;2023-11-19T15:31:31;9.08;76.77
70534;SHT31;58088;51.186;17.130;2023-11-19T15:33:57;9.08;76.70
70534;SHT31;58088;51.186;17.130;2023-11-19T15:36:23;9.07;76.70
70534;SHT31;58088;51.186;17.130;2023-11-19T15:38:50;9.09;76.70
70534;SHT31;58088;51.186;17.130;2023-11-19T15:41:16;9.10;76.62
70534;SHT31;58088;51.186;17.130;2023-11-19T15:43:42;9.08;76.54
70534;SHT31;58088;51.186;17.130;2023-11-19T15:46:09;9.05;76.49
70534;SHT31;58088;51.186;17.130;2023-11-19T15:48:36;9.03;76.59
70534;SHT31;58088;51.186;17.130;2023-11-19T15:51:03;9.02;76.54
70534;SHT31;58088;51.186;17.130;2023-11-19T15:53:30;8.98;76.34
70534;SHT31;58088;51.186;17.130;2023-11-19T15:55:56;8.92;76.18
70534;SHT31;58088;51.186;17.130;2023-11-19T15:58:27;8.86;76.18
70534;SHT31;58088;51.186;17.130;2023-11-19T16:00:53;8.83;76.02
70534;SHT31;58088;51.186;17.130;2023-11-19T16:03:19;8.79;75.86